Time;durP1;ratioP1;P1;durP2;ratioP2;P2;SDS_P1;SDS_P2;PMS_P1;PMS_P2;Temp;Humidity;BMP_temperature;BMP_pressure;BME280_temperature;BME280_humidity;BME280_pressure;Samples;Min_cycle;Max_cycle;Signal;HPM_P1;HPM_P2
2022/07/27 00:01:25;;;;;;;;;;;;;;;19.47;56.84;99958.62;1396813;92;20895;-79
2022/07/27 00:03:51;;;;;;;;;;;;;;;19.48;55.63;99961.60;1399683;91;20297;-77
2022/07/27 00:06:17;;;;;;;;;;;;;;;19.51;56.27;99970.59;1401208;92;20273;-78
2022/07/27 00:08:44;;;;;;;;;;;;;;;19.44;55.30;99963.09;1406674;91;20456;-78
2022/07/27 00:11:10;;;;;;;;;;;;;;;19.45;55.30;99966.06;1410632;92;20318;-78
2022/07/27 00:13:37;;;;;;;;;;;;;;;19.42;55.12;99959.79;1409499;91;20401;-78
2022/07/27 00:16:03;;;;;;;;;;;;;;;19.45;55.29;99964.72;1483711;92;20365;-78
2022/07/27 00:18:29;;;;;;;;;;;;;;;19.46;55.56;99965.05;1488214;91;20299;-78
2022/07/27 00:20:56;;;;;;;;;;;;;;;19.40;55.46;99966.73;1420834;92;20317;-78
2022/07/27 00:23:22;;;;;;;;;;;;;;;19.39;55.67;99966.41;1397230;92;20297;-78
2022/07/27 00:25:48;;;;;;;;;;;;;;;19.38;55.71;99960.75;1402348;92;20602;-79
2022/07/27 00:28:14;;;;;;;;;;;;;;;19.29;56.22;99960.71;1392024;94;20381;-79
2022/07/27 00:30:40;;;;;;;;;;;;;;;19.31;55.84;99965.35;1408148;91;20333;-79
2022/07/27 00:33:06;;;;;;;;;;;;;;;19.28;55.93;99971.97;1398553;92;20408;-78
2022/07/27 00:35:33;;;;;;;;;;;;;;;19.32;56.32;99965.64;1398273;92;20303;-78
2022/07/27 00:37:59;;;;;;;;;;;;;;;19.30;56.08;99967.71;1410559;91;20368;-78
2022/07/27 00:40:25;;;;;;;;;;;;;;;19.23;56.31;99959.71;1433184;89;20310;-78
2022/07/27 00:42:51;;;;;;;;;;;;;;;19.22;56.54;99967.47;1443685;89;20293;-78
2022/07/27 00:45:18;;;;;;;;;;;;;;;19.24;56.38;99960.53;1427102;91;20926;-78
2022/07/27 00:47:50;;;;;;;;;;;;;;;19.22;56.56;99967.96;1427724;89;20280;-78
2022/07/27 00:50:16;;;;;;;;;;;;;;;19.25;56.71;99969.72;1424457;90;20902;-78
2022/07/27 00:52:42;;;;;;;;;;;;;;;19.22;56.66;99966.62;1410491;91;20357;-78
2022/07/27 00:55:08;;;;;;;;;;;;;;;19.25;56.35;99960.82;1422955;91;20551;-78
2022/07/27 00:57:34;;;;;;;;;;;;;;;19.25;56.57;99966.19;1462825;89;20397;-78
2022/07/27 01:00:00;;;;;;;;;;;;;;;19.22;56.16;99959.42;1436605;89;20389;-79
2022/07/27 01:02:26;;;;;;;;;;;;;;;19.28;56.37;99953.19;1455816;89;20359;-78
2022/07/27 01:04:52;;;;;;;;;;;;;;;19.23;56.50;99959.71;1439840;89;20402;-78
2022/07/27 01:07:18;;;;;;;;;;;;;;;19.21;56.57;99959.09;1423270;90;20523;-78
2022/07/27 01:09:57;;;;;;;;;;;;;;;19.20;56.77;99962.83;1424607;91;20492;-78
2022/07/27 01:12:26;;;;;;;;;;;;;;;19.16;56.57;99966.96;1436029;90;20451;-78
2022/07/27 01:14:53;;;;;;;;;;;;;;;19.21;56.50;99966.33;1428806;91;20303;-78
2022/07/27 01:17:19;;;;;;;;;;;;;;;19.23;56.88;99956.21;1405890;92;20312;-78
2022/07/27 01:19:46;;;;;;;;;;;;;;;19.23;56.89;99965.60;1409606;91;21027;-78
2022/07/27 01:22:12;;;;;;;;;;;;;;;19.16;56.65;99969.15;1392254;93;20414;-78
2022/07/27 01:24:38;;;;;;;;;;;;;;;19.16;56.86;99976.34;1409493;91;20319;-78
2022/07/27 01:27:05;;;;;;;;;;;;;;;19.11;56.95;99974.85;1413190;91;20340;-78
2022/07/27 01:29:32;;;;;;;;;;;;;;;19.12;57.16;99979.17;1427574;89;20397;-77
2022/07/27 01:31:58;;;;;;;;;;;;;;;19.14;57.26;99975.77;1437132;89;20401;-78
2022/07/27 01:34:24;;;;;;;;;;;;;;;19.12;57.33;99984.53;1412782;91;20414;-78
2022/07/27 01:36:51;;;;;;;;;;;;;;;19.12;57.17;99987.22;1434674;89;20340;-78
2022/07/27 01:39:17;;;;;;;;;;;;;;;19.10;57.28;99979.89;1457095;89;20317;-78
2022/07/27 01:41:46;;;;;;;;;;;;;;;19.06;57.60;99982.19;1443626;90;20387;-78
2022/07/27 01:44:12;;;;;;;;;;;;;;;19.00;57.77;99978.20;1432866;90;20294;-78
2022/07/27 01:46:38;;;;;;;;;;;;;;;18.98;57.95;99974.38;1434538;91;20317;-78
2022/07/27 01:49:04;;;;;;;;;;;;;;;18.99;58.26;99977.39;1416174;90;20282;-78
2022/07/27 01:51:30;;;;;;;;;;;;;;;19.00;58.20;99982.23;1422164;90;20282;-78
2022/07/27 01:53:56;;;;;;;;;;;;;;;18.98;58.34;99985.11;1437972;90;20295;-78
2022/07/27 01:56:22;;;;;;;;;;;;;;;18.93;58.78;99976.38;1440356;90;20515;-78
2022/07/27 01:58:48;;;;;;;;;;;;;;;18.97;59.05;99984.00;1439466;90;20294;-78
2022/07/27 02:01:14;;;;;;;;;;;;;;;18.88;59.04;99981.55;1438955;90;20295;-78
2022/07/27 02:03:42;;;;;;;;;;;;;;;18.86;59.39;99986.30;1417414;91;20294;-78
2022/07/27 02:06:09;;;;;;;;;;;;;;;18.80;59.57;99984.47;1410017;90;20328;-78
2022/07/27 02:08:35;;;;;;;;;;;;;;;18.80;59.52;99979.11;1425425;90;20369;-78
2022/07/27 02:13:48;;;;;;;;;;;;;;;18.82;59.81;99983.75;1420965;91;20297;-78
2022/07/27 02:16:19;;;;;;;;;;;;;;;18.78;60.25;99983.03;1419374;92;20387;-79
2022/07/27 02:18:45;;;;;;;;;;;;;;;18.71;60.61;99984.38;1419800;92;20297;-78
2022/07/27 02:21:12;;;;;;;;;;;;;;;18.70;60.84;99989.41;1385973;92;20252;-79
2022/07/27 02:23:41;;;;;;;;;;;;;;;18.65;61.18;99990.06;1445315;91;20287;-79
2022/07/27 02:26:08;;;;;;;;;;;;;;;18.64;61.47;99991.10;1447924;91;20904;-79
2022/07/27 02:28:35;;;;;;;;;;;;;;;18.66;61.69;99989.02;1442608;91;20339;-79
2022/07/27 02:31:01;;;;;;;;;;;;;;;18.65;61.95;99990.06;1434422;91;20332;-78
2022/07/27 02:33:27;;;;;;;;;;;;;;;18.65;61.90;99990.06;1445465;91;20466;-77
2022/07/27 02:35:54;;;;;;;;;;;;;;;18.63;62.48;99989.44;1413402;90;20398;-78
2022/07/27 02:38:20;;;;;;;;;;;;;;;18.61;63.00;99985.31;1442965;91;20250;-78
2022/07/27 02:40:45;;;;;;;;;;;;;;;18.66;63.16;99989.02;1428566;89;20330;-80
2022/07/27 02:43:12;;;;;;;;;;;;;;;18.64;63.30;99988.42;1414627;91;20289;-79
2022/07/27 02:45:39;;;;;;;;;;;;;;;18.66;63.37;99993.56;1401937;93;21254;-79
2022/07/27 02:48:05;;;;;;;;;;;;;;;18.63;63.61;99993.98;1410327;92;20379;-79
2022/07/27 02:50:31;;;;;;;;;;;;;;;18.66;63.82;100003.75;1409652;92;20304;-78
2022/07/27 02:52:57;;;;;;;;;;;;;;;18.67;64.04;100004.08;1409505;92;20342;-79
2022/07/27 02:55:23;;;;;;;;;;;;;;;18.66;64.24;99999.73;1411954;92;20901;-79
2022/07/27 02:57:49;;;;;;;;;;;;;;;18.65;64.54;100000.78;1411542;92;20510;-79
2022/07/27 03:00:15;;;;;;;;;;;;;;;18.67;64.23;100013.95;1407175;92;20335;-79
2022/07/27 03:02:41;;;;;;;;;;;;;;;18.66;64.59;100011.80;1411284;92;20431;-78
2022/07/27 03:05:09;;;;;;;;;;;;;;;18.63;64.79;100013.56;1415633;92;20408;-79
2022/07/27 03:07:35;;;;;;;;;;;;;;;18.63;65.39;100014.08;1417919;92;20490;-79
2022/07/27 03:10:01;;;;;;;;;;;;;;;18.62;65.60;100021.83;1408718;92;20326;-78
2022/07/27 03:12:27;;;;;;;;;;;;;;;18.64;65.57;100011.70;1403726;92;20512;-79
2022/07/27 03:14:53;;;;;;;;;;;;;;;18.64;66.03;100023.27;1411996;92;21409;-79
2022/07/27 03:17:19;;;;;;;;;;;;;;;18.68;65.63;100019.64;1410104;91;20523;-81
2022/07/27 03:19:45;;;;;;;;;;;;;;;18.74;65.64;100021.51;1418458;91;20899;-80
2022/07/27 03:22:10;;;;;;;;;;;;;;;18.75;65.46;100029.84;1428345;91;20309;-80
2022/07/27 03:24:36;;;;;;;;;;;;;;;18.74;65.75;100034.91;1428860;91;20305;-80
2022/07/27 03:27:02;;;;;;;;;;;;;;;18.70;66.06;100043.86;1401343;92;20315;-79
2022/07/27 03:29:28;;;;;;;;;;;;;;;18.67;66.44;100035.39;1393700;92;20958;-79
2022/07/27 03:31:54;;;;;;;;;;;;;;;18.68;66.12;100043.77;1410051;92;20327;-78
2022/07/27 03:34:20;;;;;;;;;;;;;;;18.72;65.72;100035.59;1410232;92;20290;-79
2022/07/27 03:36:46;;;;;;;;;;;;;;;18.69;66.18;100034.68;1407977;92;20238;-80
2022/07/27 03:39:12;;;;;;;;;;;;;;;18.66;66.36;100036.44;1416278;92;20335;-79
2022/07/27 03:41:38;;;;;;;;;;;;;;;18.68;66.16;100033.05;1424864;91;20510;-80
2022/07/27 03:44:05;;;;;;;;;;;;;;;18.67;66.50;100032.72;1430088;89;20273;-80
2022/07/27 03:46:31;;;;;;;;;;;;;;;18.69;66.48;100034.16;1453101;89;20276;-79
2022/07/27 03:48:57;;;;;;;;;;;;;;;18.69;66.62;100039.52;1456975;89;20901;-80
2022/07/27 03:51:23;;;;;;;;;;;;;;;18.68;67.04;100041.09;1454333;89;20292;-79
2022/07/27 03:53:49;;;;;;;;;;;;;;;18.70;66.90;100049.72;1437014;89;21019;-80
2022/07/27 03:56:15;;;;;;;;;;;;;;;18.74;66.59;100055.02;1454146;89;20287;-79
2022/07/27 03:58:41;;;;;;;;;;;;;;;18.73;67.12;100046.64;1464310;89;20404;-80
2022/07/27 04:01:07;;;;;;;;;;;;;;;18.75;67.07;100049.13;1447028;89;21695;-80
2022/07/27 04:03:33;;;;;;;;;;;;;;;18.76;67.08;100051.61;1460315;89;20276;-80
2022/07/27 04:05:59;;;;;;;;;;;;;;;18.78;66.90;100048.70;1457747;89;20403;-80
2022/07/27 04:08:25;;;;;;;;;;;;;;;18.77;67.28;100057.80;1420973;92;20824;-79
2022/07/27 04:10:51;;;;;;;;;;;;;;;18.76;67.30;100050.77;1420343;89;20451;-80
2022/07/27 04:13:20;;;;;;;;;;;;;;;18.78;66.96;100048.19;1460927;89;20277;-79
2022/07/27 04:15:44;;;;;;;;;;;;;;;18.80;66.91;100046.12;1457303;89;20968;-79
2022/07/27 04:18:10;;;;;;;;;;;;;;;18.86;66.60;100043.94;1439420;89;20388;-80
2022/07/27 04:20:36;;;;;;;;;;;;;;;18.89;66.32;100050.22;1458584;89;20307;-79
2022/07/27 04:23:02;;;;;;;;;;;;;;;18.92;66.00;100052.47;1446970;89;20355;-79
2022/07/27 04:25:28;;;;;;;;;;;;;;;18.98;65.85;100058.85;1421827;92;20310;-80
2022/07/27 04:27:54;;;;;;;;;;;;;;;18.99;66.27;100059.18;1420081;91;20333;-80
2022/07/27 04:30:20;;;;;;;;;;;;;;;19.04;65.54;100061.20;1437039;89;20820;-80
2022/07/27 04:32:46;;;;;;;;;;;;;;;19.10;65.39;100068.41;1463573;89;20886;-80
2022/07/27 04:35:12;;;;;;;;;;;;;;;19.16;64.90;100079.62;1434074;89;20344;-79
2022/07/27 04:37:38;;;;;;;;;;;;;;;19.14;65.11;100087.08;1460788;89;20373;-79
2022/07/27 04:40:06;;;;;;;;;;;;;;;19.22;65.58;100088.19;1433964;91;20317;-79
2022/07/27 04:42:32;;;;;;;;;;;;;;;19.25;64.62;100087.76;1432715;91;20424;-79
2022/07/27 04:44:58;;;;;;;;;;;;;;;19.27;64.56;100087.53;1417296;89;20400;-80
2022/07/27 04:47:25;;;;;;;;;;;;;;;19.37;64.70;100095.44;1418125;92;20331;-79
2022/07/27 04:49:51;;;;;;;;;;;;;;;19.43;63.94;100084.89;1464034;89;20307;-78
2022/07/27 04:52:16;;;;;;;;;;;;;;;19.53;64.39;100087.40;1464648;89;20486;-79
2022/07/27 04:54:43;;;;;;;;;;;;;;;19.59;64.06;100088.41;1457619;89;20798;-79
2022/07/27 04:57:09;;;;;;;;;;;;;;;19.62;63.84;100089.31;1457527;89;20306;-79
2022/07/27 04:59:35;;;;;;;;;;;;;;;19.66;63.37;100094.61;1428657;89;20866;-80
2022/07/27 05:02:01;;;;;;;;;;;;;;;19.66;63.36;100091.92;1448171;89;20398;-79
2022/07/27 05:04:26;;;;;;;;;;;;;;;19.69;63.40;100087.47;1412452;91;20523;-79
2022/07/27 05:06:52;;;;;;;;;;;;;;;19.71;63.76;100081.37;1428424;89;20255;-79
2022/07/27 05:09:18;;;;;;;;;;;;;;;19.73;63.33;100088.66;1453824;89;20801;-79
2022/07/27 05:11:45;;;;;;;;;;;;;;;19.79;63.38;100093.69;1428842;91;20355;-79
2022/07/27 05:14:10;;;;;;;;;;;;;;;19.83;63.13;100090.89;1442569;89;20314;-79
2022/07/27 05:16:39;;;;;;;;;;;;;;;19.90;62.76;100098.91;1460755;89;20474;-79
2022/07/27 05:19:05;;;;;;;;;;;;;;;19.95;62.90;100097.21;1464765;89;20322;-78
2022/07/27 05:21:31;;;;;;;;;;;;;;;20.00;62.25;100083.14;1459581;89;20265;-79
2022/07/27 05:23:58;;;;;;;;;;;;;;;20.04;62.43;100091.05;1429819;89;20482;-79
2022/07/27 05:26:24;;;;;;;;;;;;;;;20.13;62.06;100102.36;1415736;92;20531;-79
2022/07/27 05:28:50;;;;;;;;;;;;;;;20.20;62.08;100098.59;1431487;89;20404;-79
2022/07/27 05:31:17;;;;;;;;;;;;;;;20.23;62.00;100107.55;1446403;86;20391;-79
2022/07/27 05:33:44;;;;;;;;;;;;;;;20.34;61.82;100105.19;1383354;94;20387;-80
2022/07/27 05:36:10;;;;;;;;;;;;;;;20.31;61.38;100100.25;1389264;94;20298;-81
2022/07/27 05:38:39;;;;;;;;;;;;;;;20.40;61.65;100101.61;1388742;94;20253;-81
2022/07/27 05:41:06;;;;;;;;;;;;;;;20.51;61.58;100107.62;1384763;94;20827;-82
2022/07/27 05:43:32;;;;;;;;;;;;;;;20.60;61.23;100113.06;1387915;94;20354;-82
2022/07/27 05:45:58;;;;;;;;;;;;;;;20.68;60.81;100115.45;1383854;94;20384;-84
2022/07/27 05:48:24;;;;;;;;;;;;;;;20.74;60.39;100113.74;1385779;94;20403;-83
2022/07/27 05:50:50;;;;;;;;;;;;;;;20.87;60.71;100118.19;1385308;94;20290;-83
2022/07/27 05:53:17;;;;;;;;;;;;;;;21.01;61.14;100114.31;1385378;94;20290;-85
2022/07/27 05:55:43;;;;;;;;;;;;;;;21.07;59.53;100113.94;1392398;94;20759;-81
2022/07/27 05:58:09;;;;;;;;;;;;;;;21.21;60.09;100116.78;1390057;94;20923;-81
2022/07/27 06:00:35;;;;;;;;;;;;;;;21.37;59.40;100122.09;1387662;94;20389;-83
2022/07/27 06:03:01;;;;;;;;;;;;;;;21.45;58.91;100114.24;1378163;94;20254;-81
2022/07/27 06:05:27;;;;;;;;;;;;;;;21.60;58.17;100115.47;1384842;94;20980;-81
2022/07/27 06:07:59;;;;;;;;;;;;;;;21.72;56.96;100114.70;1385577;94;20613;-80
2022/07/27 06:10:28;;;;;;;;;;;;;;;21.79;56.25;100112.75;1391027;94;20991;-81
2022/07/27 06:12:54;;;;;;;;;;;;;;;21.95;56.51;100108.06;1386019;91;20328;-81
2022/07/27 06:15:21;;;;;;;;;;;;;;;22.04;56.22;100112.06;1390317;94;20379;-80
2022/07/27 06:17:48;;;;;;;;;;;;;;;22.18;55.59;100118.61;1387608;94;20357;-79
2022/07/27 06:20:14;;;;;;;;;;;;;;;22.29;54.94;100119.16;1386465;94;20343;-82
2022/07/27 06:22:52;;;;;;;;;;;;;;;22.38;53.99;100116.41;1390058;94;20329;-82
2022/07/27 06:25:19;;;;;;;;;;;;;;;22.39;53.04;100120.77;1388543;94;20326;-82
2022/07/27 06:27:46;;;;;;;;;;;;;;;22.47;52.98;100120.94;1386171;94;20805;-82
2022/07/27 06:30:17;;;;;;;;;;;;;;;22.47;52.46;100121.78;1390903;94;20401;-83
2022/07/27 06:32:43;;;;;;;;;;;;;;;22.47;51.84;100125.83;1395991;92;20407;-82
2022/07/27 06:35:10;;;;;;;;;;;;;;;22.48;51.88;100112.63;1384026;94;20397;-83
2022/07/27 06:37:36;;;;;;;;;;;;;;;22.61;51.89;100112.91;1397031;93;20597;-82
2022/07/27 06:40:03;;;;;;;;;;;;;;;22.77;52.17;100110.05;1428086;88;20826;-82
2022/07/27 06:42:29;;;;;;;;;;;;;;;22.92;51.92;100119.01;1419517;92;20331;-82
2022/07/27 06:44:55;;;;;;;;;;;;;;;23.10;51.89;100120.77;1417051;92;20471;-82
2022/07/27 06:47:21;;;;;;;;;;;;;;;23.17;49.50;100129.58;1412308;92;20385;-82
2022/07/27 06:49:47;;;;;;;;;;;;;;;23.10;49.08;100124.31;1408418;92;20405;-83
2022/07/27 06:52:14;;;;;;;;;;;;;;;23.10;49.57;100124.31;1413873;92;20473;-84
2022/07/27 06:54:39;;;;;;;;;;;;;;;23.18;49.26;100125.80;1399806;92;20252;-83
2022/07/27 06:57:05;;;;;;;;;;;;;;;23.12;48.68;100127.58;1396396;92;20310;-83
2022/07/27 06:59:33;;;;;;;;;;;;;;;23.30;49.08;100117.14;1375447;92;20329;-84
2022/07/27 07:01:59;;;;;;;;;;;;;;;23.47;48.93;100119.91;1410591;92;20324;-84
2022/07/27 07:04:25;;;;;;;;;;;;;;;23.48;48.34;100123.42;1392582;92;20361;-84
2022/07/27 07:06:52;;;;;;;;;;;;;;;23.57;49.08;100123.36;1410494;92;20315;-84
2022/07/27 07:09:18;;;;;;;;;;;;;;;23.67;48.69;100125.42;1410118;92;20644;-83
2022/07/27 07:11:44;;;;;;;;;;;;;;;23.68;47.89;100127.06;1412920;92;20352;-83
2022/07/27 07:14:10;;;;;;;;;;;;;;;23.88;48.96;100135.60;1417607;92;20308;-85
2022/07/27 07:16:36;;;;;;;;;;;;;;;24.05;48.30;100127.50;1413981;90;20837;-84
2022/07/27 07:19:02;;;;;;;;;;;;;;;23.97;48.06;100130.62;1418495;92;20308;-82
2022/07/27 07:21:28;;;;;;;;;;;;;;;24.05;48.27;100129.70;1396738;94;20348;-84
2022/07/27 07:23:54;;;;;;;;;;;;;;;24.14;48.33;100130.62;1399830;92;20270;-83
2022/07/27 07:26:20;;;;;;;;;;;;;;;24.19;47.21;100127.47;1419219;92;20331;-85
2022/07/27 07:28:45;;;;;;;;;;;;;;;24.10;46.89;100118.13;1410455;92;20853;-82
2022/07/27 07:31:11;;;;;;;;;;;;;;;24.07;46.62;100107.27;1401952;92;20437;-84
2022/07/27 07:33:37;;;;;;;;;;;;;;;24.28;46.42;100116.56;1380576;92;20433;-84
2022/07/27 07:36:03;;;;;;;;;;;;;;;24.39;46.53;100127.53;1404650;92;20294;-84
2022/07/27 07:38:30;;;;;;;;;;;;;;;24.38;46.30;100115.08;1408348;92;20334;-83
2022/07/27 07:40:56;;;;;;;;;;;;;;;24.52;46.82;100125.34;1428488;89;20727;-84
2022/07/27 07:43:21;;;;;;;;;;;;;;;24.69;46.84;100129.94;1450955;89;20812;-83
2022/07/27 07:45:47;;;;;;;;;;;;;;;24.83;46.45;100127.67;1462572;89;20268;-83
2022/07/27 07:48:13;;;;;;;;;;;;;;;24.90;45.29;100126.98;1452502;89;20387;-84
2022/07/27 07:50:39;;;;;;;;;;;;;;;24.86;44.71;100129.38;1433404;89;20291;-84
2022/07/27 07:53:05;;;;;;;;;;;;;;;24.93;44.99;100127.83;1457005;89;20261;-83
2022/07/27 07:55:31;;;;;;;;;;;;;;;24.86;44.78;100125.82;1428402;90;21088;-84
2022/07/27 07:57:58;;;;;;;;;;;;;;;24.68;45.48;100135.86;1442799;89;20320;-84
2022/07/27 08:00:25;;;;;;;;;;;;;;;24.84;45.39;100141.52;1459165;89;20952;-84
2022/07/27 08:02:53;;;;;;;;;;;;;;;25.03;46.05;100140.17;1444184;89;20387;-83
2022/07/27 08:05:19;;;;;;;;;;;;;;;24.95;44.87;100140.05;1446056;90;20305;-84
2022/07/27 08:07:46;;;;;;;;;;;;;;;25.14;45.66;100145.19;1436316;90;20279;-84
2022/07/27 08:10:13;;;;;;;;;;;;;;;25.15;45.11;100144.95;1456436;89;20268;-84
2022/07/27 08:12:41;;;;;;;;;;;;;;;25.41;45.57;100145.28;1437999;89;20271;-84
2022/07/27 08:15:08;;;;;;;;;;;;;;;25.60;44.67;100147.92;1437670;89;20293;-84
2022/07/27 08:17:34;;;;;;;;;;;;;;;25.75;44.20;100153.23;1439439;89;20374;-84
2022/07/27 08:20:01;;;;;;;;;;;;;;;25.94;44.55;100154.56;1437857;89;20851;-84
2022/07/27 08:22:26;;;;;;;;;;;;;;;26.03;42.98;100158.44;1453886;89;20283;-85
2022/07/27 08:24:52;;;;;;;;;;;;;;;25.88;42.51;100161.01;1429500;90;20270;-84
2022/07/27 08:27:19;;;;;;;;;;;;;;;25.93;43.20;100167.84;1441348;89;20318;-83
2022/07/27 08:29:45;;;;;;;;;;;;;;;25.85;43.00;100169.66;1451956;89;20313;-83
2022/07/27 08:32:11;;;;;;;;;;;;;;;25.78;42.40;100166.27;1450853;88;20300;-83
2022/07/27 08:34:37;;;;;;;;;;;;;;;25.86;43.35;100162.60;1436252;89;20760;-84
2022/07/27 08:37:03;;;;;;;;;;;;;;;25.82;42.99;100157.42;1439714;90;20309;-85
2022/07/27 08:39:29;;;;;;;;;;;;;;;25.88;43.24;100155.59;1452582;89;20871;-84
2022/07/27 08:41:57;;;;;;;;;;;;;;;26.13;43.68;100158.28;1445198;89;20346;-85
2022/07/27 08:44:24;;;;;;;;;;;;;;;26.08;42.93;100155.78;1446320;89;21027;-84
2022/07/27 08:46:50;;;;;;;;;;;;;;;26.25;42.28;100152.14;1449503;89;20314;-84
2022/07/27 08:49:19;;;;;;;;;;;;;;;26.34;42.60;100158.73;1440565;89;20293;-83
2022/07/27 08:51:45;;;;;;;;;;;;;;;26.37;41.63;100159.56;1438569;90;20391;-84
2022/07/27 08:54:11;;;;;;;;;;;;;;;26.36;41.90;100162.01;1457275;89;20289;-83
2022/07/27 08:56:37;;;;;;;;;;;;;;;26.48;43.03;100162.64;1434618;90;20320;-84
2022/07/27 08:59:03;;;;;;;;;;;;;;;26.59;42.67;100153.27;1456848;89;20425;-84
2022/07/27 09:01:35;;;;;;;;;;;;;;;26.59;41.81;100155.98;1451492;89;21628;-84
2022/07/27 09:04:01;;;;;;;;;;;;;;;26.76;42.73;100164.79;1455330;89;20257;-85
2022/07/27 09:06:42;;;;;;;;;;;;;;;26.94;41.80;100160.28;1441253;90;20271;-85
2022/07/27 09:09:09;;;;;;;;;;;;;;;27.09;41.50;100162.80;1452705;89;20322;-84
2022/07/27 09:11:37;;;;;;;;;;;;;;;27.01;41.34;100160.85;1452537;89;20863;-84
2022/07/27 09:14:06;;;;;;;;;;;;;;;27.10;40.74;100164.43;1432459;90;20301;-84
2022/07/27 09:16:32;;;;;;;;;;;;;;;27.21;40.63;100162.08;1451117;89;20433;-85
2022/07/27 09:19:01;;;;;;;;;;;;;;;27.22;40.57;100161.02;1459224;89;20788;-85
2022/07/27 09:21:27;;;;;;;;;;;;;;;27.30;40.49;100159.67;1462507;89;20529;-84
2022/07/27 09:23:56;;;;;;;;;;;;;;;27.18;39.59;100170.75;1450871;88;20264;-84
2022/07/27 09:26:25;;;;;;;;;;;;;;;27.05;38.82;100161.16;1446111;89;20263;-84
2022/07/27 09:28:57;;;;;;;;;;;;;;;27.23;38.84;100159.92;1510069;89;20857;-84
2022/07/27 09:31:24;;;;;;;;;;;;;;;27.33;39.21;100157.23;1445447;89;20756;-84
2022/07/27 09:33:55;;;;;;;;;;;;;;;27.42;39.09;100161.10;1453471;89;20227;-84
2022/07/27 09:36:22;;;;;;;;;;;;;;;27.46;38.33;100161.38;1452877;89;20242;-84
2022/07/27 09:39:02;;;;;;;;;;;;;;;27.28;38.19;100151.80;1437140;89;20835;-83
2022/07/27 09:41:46;;;;;;;;;;;;;;;27.17;39.09;100150.12;1441917;89;20397;-84
2022/07/27 09:44:12;;;;;;;;;;;;;;;27.03;39.35;100147.56;1448594;89;20383;-84
2022/07/27 09:46:41;;;;;;;;;;;;;;;27.18;38.19;100157.17;1452527;89;20312;-83
2022/07/27 09:49:28;;;;;;;;;;;;;;;27.07;37.94;100151.38;1451398;89;20433;-84
2022/07/27 09:51:55;;;;;;;;;;;;;;;27.37;38.04;100150.75;1444424;89;20323;-83
2022/07/27 09:54:21;;;;;;;;;;;;;;;27.68;38.09;100154.40;1445791;89;21236;-84
2022/07/27 09:57:02;;;;;;;;;;;;;;;27.88;37.04;100157.19;1434355;90;20307;-84
2022/07/27 09:59:29;;;;;;;;;;;;;;;28.00;37.14;100153.41;1454900;89;20342;-84
2022/07/27 10:01:55;;;;;;;;;;;;;;;28.04;36.90;100154.48;1442407;88;20271;-84
2022/07/27 10:04:22;;;;;;;;;;;;;;;28.17;36.46;100153.97;1436629;90;20841;-85
2022/07/27 10:06:48;;;;;;;;;;;;;;;27.95;36.69;100149.31;1448897;89;20352;-84
2022/07/27 10:09:14;;;;;;;;;;;;;;;27.95;36.02;100157.47;1457325;89;20274;-83
2022/07/27 10:11:40;;;;;;;;;;;;;;;27.70;36.17;100165.80;1459247;89;20495;-84
2022/07/27 10:14:06;;;;;;;;;;;;;;;27.78;35.93;100161.20;1443301;89;20304;-82
2022/07/27 10:16:33;;;;;;;;;;;;;;;27.82;35.47;100158.79;1427654;90;20235;-84
2022/07/27 10:19:09;;;;;;;;;;;;;;;28.00;35.79;100154.22;1430463;90;21621;-84
2022/07/27 10:21:37;;;;;;;;;;;;;;;28.23;36.49;100155.60;1444172;89;20300;-84
2022/07/27 10:24:06;;;;;;;;;;;;;;;28.46;35.97;100155.64;1446556;89;20383;-83
2022/07/27 10:26:35;;;;;;;;;;;;;;;28.34;35.22;100159.16;1447771;89;20267;-84
2022/07/27 10:29:07;;;;;;;;;;;;;;;28.45;35.63;100150.45;1462798;89;20292;-84
2022/07/27 10:31:36;;;;;;;;;;;;;;;28.60;37.33;100158.63;1446386;89;20315;-83
2022/07/27 10:34:07;;;;;;;;;;;;;;;28.45;34.83;100147.73;1442259;89;20442;-84
2022/07/27 10:36:37;;;;;;;;;;;;;;;28.55;35.82;100145.83;1451132;89;20819;-84
2022/07/27 10:39:05;;;;;;;;;;;;;;;28.54;34.44;100146.92;1459676;89;20367;-84
2022/07/27 10:41:36;;;;;;;;;;;;;;;28.42;35.28;100148.28;1446537;89;20381;-84
2022/07/27 10:44:20;;;;;;;;;;;;;;;28.66;35.71;100139.02;1457658;89;20239;-84
2022/07/27 10:46:52;;;;;;;;;;;;;;;28.82;34.20;100142.52;1461129;89;20856;-85
2022/07/27 10:49:21;;;;;;;;;;;;;;;28.71;34.55;100135.72;1454077;89;20315;-85
2022/07/27 10:51:48;;;;;;;;;;;;;;;29.03;34.29;100125.59;1413716;91;20295;-85
2022/07/27 10:54:26;;;;;;;;;;;;;;;29.22;34.73;100127.43;1427353;91;20853;-86
2022/07/27 10:56:55;;;;;;;;;;;;;;;29.38;33.00;100135.56;1407455;91;20430;-85
2022/07/27 10:59:43;;;;;;;;;;;;;;;29.43;31.99;100132.27;1413135;91;20419;-85
2022/07/27 11:02:10;;;;;;;;;;;;;;;29.25;33.57;100132.88;1418596;92;20289;-86
2022/07/27 11:04:46;;;;;;;;;;;;;;;28.97;32.24;100131.57;1426153;91;20208;-86
2022/07/27 11:07:17;;;;;;;;;;;;;;;28.98;32.51;100120.97;1404802;91;20383;-85
2022/07/27 11:09:44;;;;;;;;;;;;;;;28.92;33.13;100131.61;1423985;91;20427;-85
2022/07/27 11:12:11;;;;;;;;;;;;;;;29.22;34.08;100121.98;1415339;91;20760;-86
2022/07/27 11:14:49;;;;;;;;;;;;;;;29.51;34.04;100127.31;1413399;91;20525;-86
2022/07/27 11:17:21;;;;;;;;;;;;;;;29.63;33.52;100125.89;1404719;91;20846;-87
2022/07/27 11:19:59;;;;;;;;;;;;;;;29.67;32.20;100125.61;1420155;91;20364;-86
2022/07/27 11:22:36;;;;;;;;;;;;;;;29.86;31.29;100124.94;1411848;91;20394;-87
2022/07/27 11:25:03;;;;;;;;;;;;;;;29.94;31.73;100117.52;1410645;93;20305;-86
2022/07/27 11:27:30;;;;;;;;;;;;;;;29.42;32.11;100111.53;1409378;91;20952;-86
2022/07/27 11:29:56;;;;;;;;;;;;;;;29.22;32.45;100102.09;1412412;91;20259;-86
2022/07/27 11:32:22;;;;;;;;;;;;;;;29.33;32.69;100114.58;1428383;91;20296;-86
2022/07/27 11:34:49;;;;;;;;;;;;;;;29.15;32.46;100110.58;1426538;90;20399;-86
2022/07/27 11:37:22;;;;;;;;;;;;;;;29.42;32.47;100112.89;1403818;90;20401;-85
2022/07/27 11:39:59;;;;;;;;;;;;;;;29.63;31.46;100113.62;1402445;91;21038;-84
2022/07/27 11:42:38;;;;;;;;;;;;;;;29.70;31.01;100112.52;1442460;90;20976;-85
2022/07/27 11:45:05;;;;;;;;;;;;;;;29.64;31.68;100111.18;1435878;90;20309;-86
2022/07/27 11:47:32;;;;;;;;;;;;;;;29.36;31.57;100115.94;1521889;90;20331;-85
2022/07/27 11:50:06;;;;;;;;;;;;;;;29.68;31.37;100120.97;1521735;90;20309;-85
2022/07/27 11:52:37;;;;;;;;;;;;;;;29.53;30.38;100121.03;1521374;90;20777;-84
2022/07/27 11:55:05;;;;;;;;;;;;;;;29.58;30.83;100113.64;1422323;90;20418;-85
2022/07/27 11:57:32;;;;;;;;;;;;;;;29.73;31.33;100111.40;1519069;90;21112;-85
2022/07/27 12:00:01;;;;;;;;;;;;;;;29.95;30.78;100117.77;1437493;90;20337;-85
2022/07/27 12:02:26;;;;;;;;;;;;;;;30.25;31.14;100110.50;1436895;90;21094;-85
2022/07/27 12:04:53;;;;;;;;;;;;;;;30.40;30.43;100101.35;1441321;90;20316;-85
2022/07/27 12:07:30;;;;;;;;;;;;;;;29.97;27.85;100111.49;1439933;90;20286;-83
2022/07/27 12:09:58;;;;;;;;;;;;;;;30.09;29.84;100107.03;1438438;90;20298;-87
2022/07/27 12:12:27;;;;;;;;;;;;;;;30.17;30.17;100106.98;1439872;90;20616;-86
2022/07/27 12:14:56;;;;;;;;;;;;;;;30.47;29.53;100104.02;1439942;89;20803;-86
2022/07/27 12:17:41;;;;;;;;;;;;;;;30.56;28.58;100091.36;1440148;89;20365;-85
2022/07/27 12:20:13;;;;;;;;;;;;;;;30.61;29.24;100084.20;1434174;89;20531;-85
2022/07/27 12:22:45;;;;;;;;;;;;;;;30.69;29.66;100089.84;1433481;89;20375;-85
2022/07/27 12:25:22;;;;;;;;;;;;;;;30.74;29.06;100097.19;1432643;90;20464;-86
2022/07/27 12:28:01;;;;;;;;;;;;;;;31.00;28.98;100093.08;1440233;89;20428;-85
2022/07/27 12:30:39;;;;;;;;;;;;;;;31.10;28.61;100094.05;1437417;89;21016;-85
2022/07/27 12:33:07;;;;;;;;;;;;;;;31.05;27.75;100094.95;1437196;89;20537;-86
2022/07/27 12:35:45;;;;;;;;;;;;;;;30.36;28.43;100090.20;1434393;90;20368;-87
2022/07/27 12:38:18;;;;;;;;;;;;;;;30.48;28.59;100094.72;1436096;89;20433;-86
2022/07/27 12:40:49;;;;;;;;;;;;;;;30.56;28.38;100088.63;1436904;90;20367;-87
2022/07/27 12:46:01;;;;;;;;;;;;;;;30.85;26.45;100083.71;1521396;89;20314;-88